map of AKB home
AKB - Airport
Location
City:  Atka, Alaska, United States
ICAO:PAAK
IATA:AKB
FAA LID:AKA

Details
Type:Airport (Airfield)
Use:Public/Civil
Latitude:5213'14"N (52.220583)
Longitude:17412'22"W (-174.206193)
Datum:WGS 1984
Elevation:55 ft (17 m)
Variation:5.43E (WMM2015v2 magnetic declination)
-0.19 annual change
Runways:1
Longest:4500 × 100 ft (1372 × 30.5 m), paved

Time
Time Zone:UTC-10 (DST-9)
Local Time:

Weather
METAR:PAAK 041356Z AUTO 23011KT 10SM -RA BKN027 OVC037 03/01 A2906 RMK AO2 SLP842 T00280006 PNO $

Related Locations
Nearby:
Farthest:FAAF: 11037 mi / 17762 km
Struisbaai [Andrew's Field Airport], WC, ZA

Find:

   beyond  
but within

Other Information
Maps:
NOTAMs:
Links:
Sources:

  
  • flag of United States
  • flag of Alaska
  

Sectional Chart

Flight Planning
at skyvector.com

Satellite Image

Google Maps Satellite view

 

Copyright © 2004-2019 Karl L. Swartz. All rights reserved.
The Great Circle Mapper name and logo are trademarks of the Great Circle Mapper.
All other trademarks mentioned herein belong to their respective owners.
Please see credits for attibutions and further copyright information.

  Follow gcmap on Facebook Follow gcmap on Twitter GCmap on LinkedIn

hCard Microformat

Geo Microformat